Flight Track Log - Related Links

Times and Time Zones

All times are in EST time to prevent confusion due to time zone crossing. See the FIN666 flight status page for this flight to view local times or setup timezone preferences in your user account.

Time Position Orientation Groundspeed Altitude Reporting Facility
EST Latitude Longitude Course Direction KTS MPH feet Rate Location/Type
Sat 07:24:00 AM 55.8592 13.1550 49° Northeast  Level Estimated
Sat 07:25:00 AM 55.9392 13.3227 50° Northeast  Level Estimated
Sat 07:26:00 AM 56.0189 13.4911 50° Northeast  Level Estimated
Sat 07:27:00 AM 56.1023 13.6685 50° Northeast  Level Estimated
Sat 07:28:00 AM 56.1854 13.8465 50° Northeast  Level Estimated
Sat 07:29:00 AM 56.2683 14.0254 50° Northeast  Level Estimated
Sat 07:30:00 AM 56.3508 14.2050 50° Northeast  Level Estimated
Sat 07:31:00 AM 56.4332 14.3854 50° Northeast  Level Estimated
Sat 07:32:00 AM 56.5153 14.5666 51° Northeast  Level Estimated
Sat 07:33:00 AM 56.5970 14.7486 51° Northeast  Level Estimated
Sat 07:34:00 AM 56.6786 14.9313 51° Northeast  Level Estimated
Sat 07:35:00 AM 56.7599 15.1149 51° Northeast  Level Estimated
Sat 07:36:00 AM 56.8409 15.2992 51° Northeast  Level Estimated
Sat 07:37:00 AM 56.9216 15.4844 51° Northeast  Level Estimated
Sat 07:38:00 AM 57.0020 15.6704 51° Northeast  Level Estimated
Sat 07:39:00 AM 57.0822 15.8571 52° Northeast  Level Estimated
Sat 07:40:00 AM 57.1621 16.0447 52° Northeast  Level Estimated
Sat 07:41:00 AM 57.2417 16.2330 52° Northeast  Level Estimated
Sat 07:42:00 AM 57.3210 16.4222 52° Northeast  Level Estimated
Sat 07:43:00 AM 57.4001 16.6122 52° Northeast  Level Estimated
Sat 07:44:00 AM 57.4788 16.8030 52° Northeast  Level Estimated
Sat 07:45:00 AM 57.5573 16.9947 53° Northeast  Level Estimated
Sat 07:46:00 AM 57.6355 17.1871 53° Northeast  Level Estimated
Sat 07:47:00 AM 57.7134 17.3804 53° Northeast  Level Estimated
Sat 07:48:00 AM 57.7910 17.5746 53° Northeast  Level Estimated
Sat 07:49:00 AM 57.8682 17.7695 53° Northeast  Level Estimated
Sat 07:50:00 AM 57.9452 17.9653 53° Northeast  Level Estimated
Sat 07:51:00 AM 58.0219 18.1620 54° Northeast  Level Estimated
Sat 07:52:00 AM 58.0983 18.3595 54° Northeast  Level Estimated
Sat 07:53:00 AM 58.1744 18.5578 54° Northeast  Level Estimated
Sat 07:54:00 AM 58.2501 18.7570 54° Northeast  Level Estimated
Sat 07:55:00 AM 58.3256 18.9570 54° Northeast  Level Estimated
Sat 07:56:00 AM 58.4007 19.1579 54° Northeast  Level Estimated
Sat 07:57:00 AM 58.4756 19.3596 55° Northeast  Level Estimated
Sat 07:58:00 AM 58.5501 19.5622 55° Northeast  Level Estimated
Sat 07:59:00 AM 58.6243 19.7657 55° Northeast  Level Estimated
Sat 08:00:00 AM 58.6981 19.9700 55° Northeast  Level Estimated
Sat 08:01:00 AM 58.7717 20.1752 55° Northeast  Level Estimated
Sat 08:02:00 AM 58.8449 20.3813 55° Northeast  Level Estimated
Sat 08:03:00 AM 58.9178 20.5882 56° Northeast  Level Estimated
Sat 08:04:00 AM 58.9903 20.7960 56° Northeast  Level Estimated
Sat 08:05:00 AM 59.0625 21.0047 56° Northeast  Level Estimated
Sat 08:06:00 AM 59.1333 21.2109 56° Northeast  Level Estimated
Sat 08:07:00 AM 59.2037 21.4180 56° Northeast  Level Estimated
Sat 08:08:00 AM 59.2738 21.6259 57° Northeast  Level Estimated
Sat 08:09:00 AM 59.3435 21.8347 57° Northeast  Level Estimated
Sat 08:10:00 AM 59.4129 22.0444 57° Northeast  Level Estimated
Sat 08:11:00 AM 59.4820 22.2549 57° Northeast  Level Estimated
Sat 08:12:00 AM 59.5507 22.4663 57° Northeast  Level Estimated
Sat 08:13:00 AM 59.6191 22.6785 57° Northeast  Level Estimated
Sat 08:14:00 AM 59.6872 22.8916 58° Northeast  Level Estimated
Sat 08:15:00 AM 59.7549 23.1055 58° Northeast  Level Estimated
Sat 08:16:00 AM 59.8223 23.3204 58° Northeast  Level Estimated
Sat 08:17:00 AM 59.8893 23.5361 58° Northeast  Level Estimated
Sat 08:18:00 AM 59.9559 23.7526 58° Northeast  Level Estimated
Sat 08:19:00 AM 60.0222 23.9700 59° Northeast  Level Estimated
Sat 08:20:00 AM 60.0881 24.1883 59° Northeast  Level Estimated
Sat 08:21:00 AM 60.1537 24.4075 59° Northeast  Level Estimated
Sat 08:22:00 AM 60.2189 24.6276 59° Northeast  Level Estimated
Sat 08:23:00 AM 60.2838 24.8485 59° Northeast  Level Estimated
Sat 08:24:00 AM 60.3172 24.9633 59° Northeast  Level Estimated
Sat 08:25:00 AM 60.3172 24.9633 37° Northeast  Level Estimated
Sat 08:26:00 AM 60.3172 24.9633 37° Northeast  Level Estimated
Sat 08:27:00 AM 60.3172 24.9633 37° Northeast  Level Estimated
Sat 08:28:00 AM 60.3172 24.9633 37° Northeast  Level Estimated
Sat 08:29:00 AM 60.3172 24.9633 37° Northeast  Level Estimated
Sat 08:30:00 AM 60.3172 24.9633 37° Northeast  Level Estimated
Sat 08:31:00 AM 60.3172 24.9633 37° Northeast  Level Estimated
Sat 08:32:00 AM 60.3172 24.9633 37° Northeast  Level Estimated
Sat 08:33:00 AM 60.3172 24.9633 37° Northeast  Level Estimated
Sat 08:34:00 AM 60.3172 24.9633 37° Northeast  Level Estimated
Sat 08:35:00 AM 60.3172 24.9633 37° Northeast  Level Estimated
Sat 08:36:00 AM 60.3172 24.9633 37° Northeast  Level Estimated
Sat 08:37:00 AM 60.3172 24.9633 37° Northeast  Level Estimated

Login

Don't have an account? Register now (free) for customized features, flight alerts, and more!